Time;durP1;ratioP1;P1;durP2;ratioP2;P2;SDS_P1;SDS_P2;PMS_P1;PMS_P2;Temp;Humidity;BMP_temperature;BMP_pressure;BME280_temperature;BME280_humidity;BME280_pressure;Samples;Min_cycle;Max_cycle;Signal;HPM_P1;HPM_P2
2023/04/04 00:04:40;;;;;;;12.70;5.60;;;;;;;-1.28;68.68;99396.20;437339;1251;111579;-42
2023/04/04 00:14:48;;;;;;;13.10;6.40;;;;;;;-1.47;68.92;99386.15;437336;1247;107400;-41
2023/04/04 00:24:56;;;;;;;14.00;6.30;;;;;;;-1.69;69.02;99374.42;437092;1251;98026;-41
2023/04/04 00:35:03;;;;;;;22.40;8.00;;;;;;;-1.90;69.31;99368.60;437209;1247;97966;-41
2023/04/04 00:45:07;;;;;;;10.20;6.00;;;;;;;-2.00;69.52;99366.90;437246;1251;110823;-41
2023/04/04 00:55:15;;;;;;;10.10;5.30;;;;;;;-2.01;69.78;99366.67;437250;1252;107496;-42
2023/04/04 01:05:22;;;;;;;10.60;5.30;;;;;;;-2.03;70.11;99356.66;437241;1253;97868;-41
2023/04/04 01:15:30;;;;;;;17.00;6.70;;;;;;;-2.08;70.30;99361.59;437655;1251;109338;-41
2023/04/04 01:25:38;;;;;;;15.00;7.00;;;;;;;-2.17;70.43;99353.36;436622;1250;97851;-40
2023/04/04 01:35:52;;;;;;;18.20;8.00;;;;;;;-2.28;70.57;99346.35;436692;1251;97874;-40
2023/04/04 01:45:58;;;;;;;24.60;9.20;;;;;;;-2.36;70.99;99349.15;436379;1251;110150;-41
2023/04/04 01:56:05;;;;;;;13.70;6.70;;;;;;;-2.40;70.99;99349.26;436490;1247;107446;-41
2023/04/04 02:06:13;;;;;;;11.40;6.10;;;;;;;-2.40;71.11;99352.36;436378;1250;97966;-41
2023/04/04 02:16:20;;;;;;;14.80;6.20;;;;;;;-2.37;71.10;99355.08;436444;1253;107289;-41
2023/04/04 02:26:27;;;;;;;18.10;7.50;;;;;;;-2.39;71.30;99365.97;436512;1251;97994;-41
2023/04/04 02:36:35;;;;;;;15.60;6.60;;;;;;;-2.54;71.46;99371.66;436431;1251;97865;-41
2023/04/04 02:46:42;;;;;;;18.20;7.80;;;;;;;-2.65;71.74;99375.92;436596;1251;110936;-41
2023/04/04 02:56:49;;;;;;;18.90;8.00;;;;;;;-2.74;71.74;99372.69;436540;1254;108446;-41
2023/04/04 03:06:56;;;;;;;16.10;8.30;;;;;;;-2.76;72.09;99371.32;436454;1247;97342;-41
2023/04/04 03:17:03;;;;;;;11.80;6.50;;;;;;;-2.78;72.24;99370.06;436552;1247;109400;-40
2023/04/04 03:27:10;;;;;;;10.90;6.60;;;;;;;-2.69;72.55;99371.27;436387;1250;106203;-39
2023/04/04 03:37:17;;;;;;;12.30;6.30;;;;;;;-2.62;72.49;99369.08;436482;1247;97881;-42
2023/04/04 03:47:25;;;;;;;14.30;7.40;;;;;;;-2.65;72.66;99363.77;436064;1247;478884;-42
2023/04/04 03:57:33;;;;;;;19.60;7.90;;;;;;;-2.76;73.02;99363.39;436640;1251;97864;-41
2023/04/04 04:07:42;;;;;;;20.60;8.80;;;;;;;-2.91;72.84;99360.23;436464;1251;97950;-41
2023/04/04 04:17:49;;;;;;;20.30;7.90;;;;;;;-2.98;73.23;99362.04;436499;1247;109753;-41
2023/04/04 04:27:56;;;;;;;23.30;10.60;;;;;;;-2.97;73.25;99362.87;436457;1247;108265;-40
2023/04/04 04:38:03;;;;;;;34.90;8.40;;;;;;;-2.94;73.14;99352.56;436442;1247;96671;-42
2023/04/04 04:48:11;;;;;;;14.70;6.10;;;;;;;-2.69;73.23;99354.10;436527;1247;107688;-41
2023/04/04 05:08:29;;;;;;;24.60;9.60;;;;;;;-1.81;73.26;99355.08;436472;1251;111468;-40
2023/04/04 05:18:37;;;;;;;33.00;12.90;;;;;;;-0.96;73.21;99356.81;436369;1251;109582;-41
2023/04/04 05:28:44;;;;;;;20.30;8.90;;;;;;;0.05;72.82;99360.83;436482;1251;97980;-42
2023/04/04 05:48:58;;;;;;;13.90;7.80;;;;;;;1.75;71.23;99358.41;436448;1251;107653;-40
2023/04/04 05:59:06;;;;;;;11.70;5.10;;;;;;;2.44;70.31;99358.40;436488;1251;96638;-41
2023/04/04 06:09:13;;;;;;;14.60;5.90;;;;;;;2.68;68.58;99354.66;436401;1251;97865;-42
2023/04/04 06:19:20;;;;;;;11.20;4.40;;;;;;;3.20;67.87;99348.94;436533;1252;110617;-41
2023/04/04 06:29:27;;;;;;;9.80;3.90;;;;;;;3.42;66.49;99356.13;436528;1251;108585;-41
2023/04/04 06:39:35;;;;;;;12.70;4.20;;;;;;;2.88;65.22;99349.33;436528;1251;97887;-40
2023/04/04 06:49:42;;;;;;;12.70;5.00;;;;;;;3.25;64.27;99341.38;436550;1251;97890;-41
2023/04/04 06:59:50;;;;;;;7.70;3.80;;;;;;;3.75;63.22;99334.21;436553;1251;111654;-41
2023/04/04 07:09:57;;;;;;;5.80;3.50;;;;;;;3.66;61.29;99334.30;436427;1247;108045;-41
2023/04/04 07:30:11;;;;;;;7.80;3.30;;;;;;;2.34;60.07;99332.23;436558;1251;97767;-42
2023/04/04 07:40:18;;;;;;;9.40;3.40;;;;;;;2.39;60.12;99332.93;436696;1247;109970;-41
2023/04/04 08:00:33;;;;;;;9.20;4.00;;;;;;;2.39;60.47;99326.18;436430;1251;97841;-41
2023/04/04 08:10:39;;;;;;;7.70;3.00;;;;;;;2.36;60.15;99323.73;436385;1262;96619;-40
2023/04/04 08:20:47;;;;;;;14.40;4.10;;;;;;;2.05;59.89;99325.58;436532;1251;110655;-41
2023/04/04 08:30:52;;;;;;;22.20;8.80;;;;;;;2.22;60.23;99321.52;436479;1247;107360;-44
2023/04/04 08:40:58;;;;;;;11.10;3.50;;;;;;;2.21;59.81;99322.38;436370;1250;97867;-41
2023/04/04 08:51:08;;;;;;;12.30;4.20;;;;;;;2.02;59.95;99314.58;436660;1251;96583;-40
2023/04/04 09:11:23;;;;;;;9.30;3.60;;;;;;;2.22;59.85;99319.93;436483;1251;107979;-40
2023/04/04 09:21:34;;;;;;;12.20;3.10;;;;;;;2.30;59.67;99313.48;436520;1251;97474;-40
2023/04/04 09:31:45;;;;;;;7.50;3.30;;;;;;;2.55;59.25;99307.30;436623;1253;97618;-40
2023/04/04 09:41:53;;;;;;;5.30;2.90;;;;;;;2.30;58.64;99313.38;436558;1252;108555;-40
2023/04/04 09:52:01;;;;;;;5.50;3.40;;;;;;;2.28;59.24;99304.83;436475;1252;108037;-40
2023/04/04 10:02:07;;;;;;;11.10;3.90;;;;;;;2.24;58.79;99307.77;436535;1252;96732;-40
2023/04/04 10:12:16;;;;;;;7.80;3.50;;;;;;;2.39;58.47;99309.80;436377;1253;96663;-41
2023/04/04 10:22:24;;;;;;;16.00;4.10;;;;;;;2.29;58.26;99311.00;436595;1247;110987;-41
2023/04/04 10:32:31;;;;;;;9.00;3.40;;;;;;;2.26;58.22;99306.30;436492;1253;107422;-40
2023/04/04 10:52:46;;;;;;;7.70;3.70;;;;;;;2.11;57.59;99299.86;436614;1252;97880;-41
2023/04/04 11:02:56;;;;;;;11.30;3.60;;;;;;;2.07;56.79;99297.13;436434;1253;109929;-40
2023/04/04 11:33:32;;;;;;;9.90;4.20;;;;;;;1.81;56.27;99307.17;436611;1253;98012;-41
2023/04/04 11:53:51;;;;;;;6.60;3.00;;;;;;;2.50;56.22;99297.16;436402;1253;107290;-41
2023/04/04 12:14:06;;;;;;;8.60;3.60;;;;;;;2.89;54.66;99289.36;436498;1254;97952;-41
2023/04/04 12:24:14;;;;;;;11.60;5.50;;;;;;;2.74;54.16;99294.06;436504;1253;109920;-40
2023/04/04 12:34:20;;;;;;;11.40;4.10;;;;;;;2.46;53.96;99296.55;436438;1248;107507;-41
2023/04/04 12:54:35;;;;;;;5.30;3.10;;;;;;;2.23;54.40;99299.90;436593;1251;97074;-41
2023/04/04 13:04:45;;;;;;;10.50;3.10;;;;;;;2.20;54.42;99291.98;436433;1248;109433;-41
2023/04/04 13:15:01;;;;;;;9.40;3.00;;;;;;;2.21;54.14;99286.73;436621;1253;97848;-40
2023/04/04 13:25:09;;;;;;;11.60;3.40;;;;;;;2.26;54.30;99269.41;436518;1252;96622;-41
2023/04/04 13:35:16;;;;;;;8.20;4.10;;;;;;;2.27;54.05;99271.03;436410;1251;109965;-40
2023/04/04 13:45:23;;;;;;;10.00;3.40;;;;;;;2.38;54.28;99276.38;436614;1253;108328;-40
2023/04/04 13:55:29;;;;;;;9.90;3.60;;;;;;;2.27;53.71;99276.69;436497;1253;97868;-40
2023/04/04 14:05:37;;;;;;;8.10;3.70;;;;;;;2.12;53.71;99280.47;436521;1258;97496;-42
2023/04/04 14:15:44;;;;;;;7.40;3.50;;;;;;;2.06;53.97;99274.29;436453;1253;110352;-41
2023/04/04 14:25:51;;;;;;;12.30;3.80;;;;;;;2.21;53.74;99267.88;436525;1253;108631;-40
2023/04/04 14:35:58;;;;;;;15.00;4.80;;;;;;;2.06;53.51;99264.73;436456;1253;97928;-41
2023/04/04 14:46:06;;;;;;;14.20;6.70;;;;;;;2.08;53.48;99251.34;436468;1253;97861;-40
2023/04/04 14:56:13;;;;;;;10.40;3.50;;;;;;;2.18;52.85;99255.89;436738;1253;109331;-41
2023/04/04 15:06:21;;;;;;;4.30;3.00;;;;;;;1.95;53.14;99255.16;436373;1261;108156;-40
2023/04/04 15:16:31;;;;;;;6.60;4.20;;;;;;;1.70;53.16;99257.14;436420;1255;97909;-41
2023/04/04 15:26:39;;;;;;;9.50;4.70;;;;;;;1.53;53.08;99252.46;436565;1253;96634;-40
2023/04/04 15:36:48;;;;;;;13.00;6.80;;;;;;;1.24;53.44;99250.45;436436;1261;110761;-40
2023/04/04 15:46:56;;;;;;;15.70;5.80;;;;;;;1.21;53.59;99245.69;436324;1252;357624;-41
2023/04/04 15:57:03;;;;;;;13.70;7.40;;;;;;;1.02;53.67;99242.27;436334;1253;97964;-42
2023/04/04 16:07:10;;;;;;;23.60;11.60;;;;;;;0.86;54.52;99241.20;436355;1251;97477;-40
2023/04/04 16:17:17;;;;;;;27.70;10.10;;;;;;;0.88;55.07;99244.86;436339;1253;110590;-40
2023/04/04 16:27:24;;;;;;;27.90;13.20;;;;;;;0.80;55.26;99249.19;436496;1253;107605;-40
2023/04/04 16:37:32;;;;;;;23.20;9.80;;;;;;;0.61;55.47;99249.48;436453;1254;97863;-41
2023/04/04 16:47:40;;;;;;;14.90;5.50;;;;;;;0.60;55.70;99248.79;436516;1252;97501;-41
2023/04/04 16:57:47;;;;;;;19.70;6.50;;;;;;;0.46;55.66;99237.15;436811;1253;110477;-42
2023/04/04 17:07:55;;;;;;;20.10;8.80;;;;;;;0.25;56.08;99230.48;436528;1251;108010;-40
2023/04/04 17:18:02;;;;;;;27.90;12.70;;;;;;;0.01;56.10;99234.84;436411;1254;98001;-41
2023/04/04 17:28:10;;;;;;;36.40;15.40;;;;;;;-0.24;56.56;99235.48;436446;1251;110246;-41
2023/04/04 17:38:16;;;;;;;32.50;12.60;;;;;;;-0.51;56.90;99245.36;436362;1261;108194;-42
2023/04/04 17:48:24;;;;;;;111.30;46.50;;;;;;;-0.76;57.26;99250.50;436423;1247;99233;-40
2023/04/04 17:58:31;;;;;;;54.40;27.20;;;;;;;-1.03;57.80;99253.48;436385;1248;110847;-41
2023/04/04 18:08:39;;;;;;;49.50;24.60;;;;;;;-1.24;58.25;99254.59;436426;1248;107820;-41
2023/04/04 18:18:44;;;;;;;81.30;42.10;;;;;;;-1.41;58.81;99252.80;436432;1247;99238;-40
2023/04/04 18:28:51;;;;;;;159.00;68.60;;;;;;;-1.56;59.09;99246.54;436537;1247;109711;-40
2023/04/04 18:38:59;;;;;;;80.80;36.70;;;;;;;-1.69;59.45;99253.41;436441;1248;99244;-42
2023/04/04 18:49:07;;;;;;;65.30;29.80;;;;;;;-1.85;59.91;99253.46;436438;1251;111184;-41
2023/04/04 19:09:20;;;;;;;54.40;24.50;;;;;;;-2.11;60.52;99270.98;436428;1251;98804;-42
2023/04/04 19:19:27;;;;;;;42.30;24.10;;;;;;;-2.20;61.08;99273.15;436418;1251;107585;-41
2023/04/04 19:29:36;;;;;;;58.00;24.60;;;;;;;-2.25;61.29;99268.23;436347;1247;98021;-42
2023/04/04 19:39:43;;;;;;;75.80;30.20;;;;;;;-2.25;61.55;99267.17;436602;1248;111365;-41
2023/04/04 19:49:49;;;;;;;94.50;37.40;;;;;;;-2.34;62.05;99264.66;436347;1247;108311;-41
2023/04/04 20:00:12;;;;;;;119.20;48.90;;;;;;;-2.52;62.18;99261.20;436395;1251;98839;-41
2023/04/04 20:10:35;;;;;;;170.20;58.20;;;;;;;-2.68;62.69;99250.89;436594;1251;111365;-41
2023/04/04 20:20:46;;;;;;;229.60;73.80;;;;;;;-2.89;62.96;99243.87;436362;1247;107346;-41
2023/04/04 20:30:54;;;;;;;184.90;71.30;;;;;;;-3.02;63.38;99242.73;436516;1251;98452;-40
2023/04/04 20:41:02;;;;;;;147.70;59.40;;;;;;;-3.13;63.77;99243.04;436442;1248;108824;-41
2023/04/04 21:01:33;;;;;;;215.40;78.10;;;;;;;-3.35;64.17;99239.75;436570;1251;112365;-41
2023/04/04 21:11:42;;;;;;;151.80;61.10;;;;;;;-3.36;64.16;99231.25;436278;1248;108475;-42
2023/04/04 21:21:49;;;;;;;117.60;45.80;;;;;;;-3.27;64.27;99228.57;436517;1248;97998;-44
2023/04/04 21:31:58;;;;;;;128.70;49.60;;;;;;;-3.18;64.53;99224.70;436615;1251;107974;-41
2023/04/04 21:42:06;;;;;;;120.50;46.10;;;;;;;-3.16;64.73;99227.08;436536;1247;99217;-40
2023/04/04 21:52:15;;;;;;;100.70;41.20;;;;;;;-3.21;64.88;99226.13;436410;1251;110223;-40
2023/04/04 22:02:22;;;;;;;97.80;41.40;;;;;;;-3.34;65.10;99220.19;436311;1248;107634;-41
2023/04/04 22:12:31;;;;;;;84.70;39.50;;;;;;;-3.48;65.21;99215.33;436517;1247;99756;-42
2023/04/04 22:22:52;;;;;;;81.30;33.30;;;;;;;-3.51;65.77;99213.32;436592;1251;107575;-41
2023/04/04 22:32:59;;;;;;;57.00;28.90;;;;;;;-3.46;65.78;99216.06;436493;1248;99200;-40
2023/04/04 22:43:07;;;;;;;63.60;26.20;;;;;;;-3.34;65.96;99211.92;436534;1251;111321;-40
2023/04/04 22:53:13;;;;;;;46.60;22.30;;;;;;;-3.19;65.95;99205.48;436510;1247;107770;-41
2023/04/04 23:03:20;;;;;;;48.40;19.00;;;;;;;-3.06;66.14;99203.89;436389;1247;98013;-40
2023/04/04 23:13:27;;;;;;;43.00;19.30;;;;;;;-3.09;65.87;99194.98;436392;1251;108430;-41
2023/04/04 23:23:35;;;;;;;64.10;25.70;;;;;;;-3.19;65.82;99178.60;436469;1251;99230;-40
2023/04/04 23:43:49;;;;;;;41.50;20.70;;;;;;;-3.30;65.87;99164.86;436285;1251;108107;-41
